Terminal Aerodrome Forecast
Issued by NWS Northern Indiana

Home | Current Version | Previous Version | Text Only | Print | Product List | Glossary On
Versions: 1 2 3 4 5 6 7 8 9 10 11 12 13
388
FTUS43 KIWX 101724
TAFFWA
TAF
KFWA 101724Z 1018/1118 26010KT P6SM OVC035
      TEMPO 1018/1020 P6SM -SN OVC025
     FM110300 19004KT 4SM -SN OVC015
     FM110600 17005KT 2SM -SN OVC015=

USA.gov is the U.S. government's official web portal to all federal, state and local government web resources and services.